Time;durP1;ratioP1;P1;durP2;ratioP2;P2;SDS_P1;SDS_P2;PMS_P1;PMS_P2;Temp;Humidity;BMP_temperature;BMP_pressure;BME280_temperature;BME280_humidity;BME280_pressure;Samples;Min_cycle;Max_cycle;Signal;HPM_P1;HPM_P2
2022/03/12 00:00:46;;;;;;;9.45;7.13;;;11.70;99.90;;;;;;5076486;28;20304;-66
2022/03/12 00:03:13;;;;;;;8.93;6.70;;;11.80;99.90;;;;;;5076568;28;20066;-65
2022/03/12 00:05:48;;;;;;;9.90;7.43;;;11.80;99.90;;;;;;5075764;28;20404;-63
2022/03/12 00:08:15;;;;;;;8.95;6.63;;;11.70;99.90;;;;;;5075997;28;20293;-64
2022/03/12 00:10:43;;;;;;;8.82;7.13;;;11.60;99.90;;;;;;5075732;28;20036;-65
2022/03/12 00:13:09;;;;;;;9.57;6.82;;;11.50;99.90;;;;;;5076503;28;20032;-65
2022/03/12 00:15:35;;;;;;;7.65;6.05;;;11.40;99.90;;;;;;5076497;28;20032;-66
2022/03/12 00:18:01;;;;;;;8.00;6.43;;;11.40;99.90;;;;;;5076645;28;20032;-66
2022/03/12 00:20:28;;;;;;;7.88;6.28;;;11.50;99.90;;;;;;5075655;28;20044;-66
2022/03/12 00:22:55;;;;;;;8.73;6.15;;;11.50;99.90;;;;;;5079874;28;20459;-66
2022/03/12 00:25:26;;;;;;;7.68;6.68;;;11.50;99.90;;;;;;5080176;28;20273;-66
2022/03/12 00:27:52;;;;;;;9.38;6.38;;;11.60;99.90;;;;;;5080113;28;20036;-66
2022/03/12 00:30:24;;;;;;;6.82;5.60;;;11.60;99.90;;;;;;5079367;28;20303;-66
2022/03/12 00:32:52;;;;;;;6.95;5.90;;;11.60;99.90;;;;;;5080038;28;20052;-66
2022/03/12 00:35:19;;;;;;;6.85;5.60;;;11.60;99.90;;;;;;5080148;28;20151;-66
2022/03/12 00:37:45;;;;;;;7.20;5.50;;;11.50;99.90;;;;;;5079155;28;20032;-66
2022/03/12 00:40:11;;;;;;;6.32;5.20;;;11.40;99.90;;;;;;5079403;28;20049;-66
2022/03/12 00:42:37;;;;;;;7.32;5.15;;;11.40;99.90;;;;;;5079923;28;20037;-65
2022/03/12 00:45:03;;;;;;;7.10;5.65;;;11.30;99.90;;;;;;5079843;28;20514;-66
2022/03/12 00:47:30;;;;;;;6.97;5.50;;;11.30;99.90;;;;;;5080292;28;20111;-65
2022/03/12 00:49:56;;;;;;;6.93;5.55;;;11.30;99.90;;;;;;5079957;28;20036;-66
2022/03/12 00:52:22;;;;;;;5.97;5.22;;;11.30;99.90;;;;;;5079644;28;20174;-66
2022/03/12 00:54:48;;;;;;;7.18;5.78;;;11.30;99.90;;;;;;5079827;28;20059;-66
2022/03/12 00:57:14;;;;;;;7.35;5.20;;;11.40;99.90;;;;;;5079541;28;20412;-67
2022/03/12 00:59:41;;;;;;;6.32;5.18;;;11.30;99.90;;;;;;5078694;28;20020;-65
2022/03/12 01:02:15;;;;;;;7.03;5.32;;;11.30;99.90;;;;;;5079719;28;20285;-63
2022/03/12 01:04:41;;;;;;;6.55;4.80;;;11.20;99.90;;;;;;5079438;28;20025;-65
2022/03/12 01:07:09;;;;;;;6.90;5.30;;;11.20;99.90;;;;;;5078906;28;20060;-65
2022/03/12 01:09:34;;;;;;;6.03;5.35;;;11.20;99.90;;;;;;5079238;28;20388;-66
2022/03/12 01:12:00;;;;;;;6.50;5.05;;;11.20;99.90;;;;;;5078551;28;20104;-64
2022/03/12 01:14:26;;;;;;;7.10;5.07;;;11.20;99.90;;;;;;5079340;28;20056;-66
2022/03/12 01:17:00;;;;;;;6.57;4.97;;;11.20;99.90;;;;;;5079238;28;20032;-64
2022/03/12 01:19:26;;;;;;;7.07;5.35;;;11.10;99.90;;;;;;5079448;28;20036;-65
2022/03/12 01:21:53;;;;;;;8.65;5.15;;;11.10;99.90;;;;;;5079210;28;20029;-65
2022/03/12 01:24:19;;;;;;;7.43;4.95;;;11.00;99.90;;;;;;5079147;28;20277;-65
2022/03/12 01:26:45;;;;;;;6.18;4.57;;;11.00;99.90;;;;;;5078310;28;20043;-66
2022/03/12 01:29:11;;;;;;;6.15;4.47;;;11.00;99.90;;;;;;5078964;28;20087;-65
2022/03/12 01:31:37;;;;;;;5.70;4.90;;;10.90;99.90;;;;;;5078857;28;20296;-66
2022/03/12 01:34:04;;;;;;;5.15;4.32;;;10.90;99.90;;;;;;5078851;28;20396;-64
2022/03/12 01:36:30;;;;;;;5.13;4.20;;;10.90;99.90;;;;;;5079085;28;20162;-65
2022/03/12 01:38:58;;;;;;;5.55;4.47;;;10.90;99.90;;;;;;5078714;28;20367;-66
2022/03/12 01:41:29;;;;;;;5.55;4.22;;;10.90;99.90;;;;;;5079385;28;20025;-66
2022/03/12 01:43:57;;;;;;;5.00;3.88;;;10.90;99.90;;;;;;5078875;28;20041;-66
2022/03/12 01:46:32;;;;;;;5.38;3.97;;;10.90;99.90;;;;;;5078680;28;20024;-66
2022/03/12 01:48:59;;;;;;;4.05;3.60;;;10.80;99.90;;;;;;5077702;28;20392;-64
2022/03/12 01:51:29;;;;;;;4.68;3.70;;;10.80;99.90;;;;;;5077767;28;20025;-64
2022/03/12 01:53:55;;;;;;;4.18;3.63;;;10.80;99.90;;;;;;5078597;28;20071;-65
2022/03/12 01:56:27;;;;;;;4.28;3.63;;;10.90;99.90;;;;;;5077792;28;20029;-66
2022/03/12 01:58:54;;;;;;;4.00;3.60;;;10.80;99.90;;;;;;5078376;28;20055;-66
2022/03/12 02:01:21;;;;;;;6.00;3.10;;;10.80;99.90;;;;;;5077631;28;20044;-64
2022/03/12 02:03:48;;;;;;;3.78;3.22;;;10.90;99.90;;;;;;5078279;28;20028;-66
2022/03/12 02:06:19;;;;;;;3.30;3.00;;;10.90;99.90;;;;;;5060839;28;20048;-65
2022/03/12 02:08:48;;;;;;;3.90;3.25;;;10.80;99.90;;;;;;5078188;28;20325;-66
2022/03/12 02:11:13;;;;;;;3.17;2.88;;;10.80;99.90;;;;;;5078110;28;20039;-66
2022/03/12 02:13:40;;;;;;;4.03;3.08;;;10.80;99.90;;;;;;5077426;28;20111;-66
2022/03/12 02:16:10;;;;;;;3.67;2.70;;;10.80;99.90;;;;;;5077478;28;20032;-66
2022/03/12 02:18:38;;;;;;;4.68;2.85;;;10.90;99.90;;;;;;5078224;28;20032;-64
2022/03/12 02:21:05;;;;;;;3.08;2.67;;;10.80;99.90;;;;;;5078040;28;20025;-66
2022/03/12 02:23:48;;;;;;;3.35;2.55;;;10.80;99.90;;;;;;5077809;28;20025;-66
2022/03/12 02:26:14;;;;;;;3.67;2.55;;;10.80;99.90;;;;;;5077316;28;20300;-63
2022/03/12 02:28:39;;;;;;;2.95;2.65;;;10.80;99.90;;;;;;5076939;28;20024;-65
2022/03/12 02:31:05;;;;;;;2.92;2.60;;;10.80;99.90;;;;;;5077761;28;20036;-64
2022/03/12 02:33:31;;;;;;;3.10;2.30;;;10.80;99.90;;;;;;5077668;28;20024;-65
2022/03/12 02:35:58;;;;;;;2.72;2.10;;;10.80;99.90;;;;;;5077658;28;20354;-64
2022/03/12 02:38:26;;;;;;;3.03;2.20;;;10.80;99.90;;;;;;5077548;28;20047;-65
2022/03/12 02:40:53;;;;;;;2.80;2.50;;;10.80;99.90;;;;;;5076613;28;20051;-66
2022/03/12 02:43:26;;;;;;;3.00;2.55;;;10.80;99.90;;;;;;5076439;28;20179;-63
2022/03/12 02:45:53;;;;;;;;;;;10.70;99.90;;;;;;5060108;28;20078;-66
2022/03/12 02:48:19;;;;;;;2.40;2.05;;;10.70;99.90;;;;;;5077472;28;19909;-64
2022/03/12 02:50:48;;;;;;;3.50;2.30;;;10.70;99.90;;;;;;5077629;28;20277;-65
2022/03/12 02:53:13;;;;;;;2.67;2.38;;;10.70;99.90;;;;;;5077346;28;20066;-65
2022/03/12 02:55:44;;;;;;;3.10;2.40;;;10.70;99.90;;;;;;5076695;28;20044;-66
2022/03/12 02:58:10;;;;;;;3.00;2.50;;;10.70;99.90;;;;;;5077211;28;20074;-63
2022/03/12 03:00:37;;;;;;;2.83;2.20;;;10.70;99.90;;;;;;5076436;28;20404;-66
2022/03/12 03:03:07;;;;;;;2.78;2.35;;;10.80;99.90;;;;;;5077460;28;20056;-66
2022/03/12 03:05:47;;;;;;;2.72;2.53;;;10.80;99.90;;;;;;5077049;28;20031;-65
2022/03/12 03:08:18;;;;;;;3.58;2.40;;;10.70;99.90;;;;;;5077135;28;20033;-65
2022/03/12 03:10:50;;;;;;;3.33;2.42;;;10.80;99.90;;;;;;5077152;28;20045;-64
2022/03/12 03:13:16;;;;;;;3.95;2.42;;;10.70;99.90;;;;;;5077193;28;20123;-66
2022/03/12 03:16:00;;;;;;;3.35;2.83;;;10.80;99.90;;;;;;5076318;28;20059;-64
2022/03/12 03:18:32;;;;;;;3.40;2.88;;;10.80;99.90;;;;;;5076992;28;20037;-66
2022/03/12 03:20:59;;;;;;;4.57;2.70;;;10.80;99.90;;;;;;5077110;28;20032;-64
2022/03/12 03:23:28;;;;;;;3.72;2.63;;;10.70;99.90;;;;;;5076882;28;20028;-66
2022/03/12 03:25:54;;;;;;;3.15;2.63;;;10.60;99.90;;;;;;5059490;28;20082;-66
2022/03/12 03:28:21;;;;;;;3.38;2.95;;;10.60;99.90;;;;;;5076972;28;20025;-66
2022/03/12 03:30:47;;;;;;;3.72;2.72;;;10.50;99.90;;;;;;5076913;28;20124;-66
2022/03/12 03:33:23;;;;;;;3.00;2.65;;;10.50;99.90;;;;;;5076742;28;20048;-66
2022/03/12 03:35:50;;;;;;;4.07;3.30;;;10.50;99.90;;;;;;5076839;28;20039;-67
2022/03/12 03:38:17;;;;;;;3.47;2.85;;;10.50;99.90;;;;;;5076778;28;20119;-64
2022/03/12 03:40:44;;;;;;;4.70;3.13;;;10.50;99.90;;;;;;5076808;28;20400;-66
2022/03/12 03:43:13;;;;;;;3.78;3.42;;;10.40;99.90;;;;;;5076658;28;20032;-66
2022/03/12 03:45:40;;;;;;;3.58;3.03;;;10.40;99.90;;;;;;5076022;28;20020;-64
2022/03/12 03:48:11;;;;;;;5.55;3.67;;;10.30;99.90;;;;;;5077011;28;20032;-64
2022/03/12 03:50:37;;;;;;;4.45;3.50;;;10.30;99.90;;;;;;5076039;28;20106;-65
2022/03/12 03:53:03;;;;;;;5.32;3.17;;;10.30;99.90;;;;;;5075858;28;20036;-66
2022/03/12 03:55:33;;;;;;;4.22;3.75;;;10.40;99.90;;;;;;5077931;28;20071;-65
2022/03/12 03:58:03;;;;;;;4.10;3.22;;;10.30;99.90;;;;;;5081036;28;20089;-66
2022/03/12 04:00:31;;;;;;;4.47;3.35;;;10.40;99.90;;;;;;5080534;28;20106;-66
2022/03/12 04:03:02;;;;;;;4.72;3.63;;;10.40;99.90;;;;;;5080626;28;20044;-65
2022/03/12 04:05:30;;;;;;;3.80;3.40;;;10.40;99.90;;;;;;5080022;28;20084;-65
2022/03/12 04:07:57;;;;;;;4.57;4.07;;;10.30;99.90;;;;;;5063712;28;20289;-65
2022/03/12 04:10:24;;;;;;;4.65;3.60;;;10.30;99.90;;;;;;5079837;28;20274;-66
2022/03/12 04:12:49;;;;;;;4.30;3.35;;;10.30;99.90;;;;;;5079767;28;20032;-66
2022/03/12 04:15:16;;;;;;;4.97;3.63;;;10.30;99.90;;;;;;5080665;28;20314;-66
2022/03/12 04:17:43;;;;;;;6.40;4.13;;;10.30;99.90;;;;;;5063341;28;20033;-65
2022/03/12 04:20:09;;;;;;;4.80;3.60;;;10.30;99.90;;;;;;5062732;28;20051;-66
2022/03/12 04:22:38;;;;;;;4.35;3.33;;;10.40;99.90;;;;;;5080640;28;20045;-66
2022/03/12 04:25:05;;;;;;;6.75;3.75;;;10.40;99.90;;;;;;5080031;28;20093;-66
2022/03/12 04:27:31;;;;;;;3.95;3.45;;;10.40;99.90;;;;;;5080504;28;20024;-66
2022/03/12 04:29:57;;;;;;;5.10;3.40;;;10.40;99.90;;;;;;5079535;28;20036;-64
2022/03/12 04:32:23;;;;;;;5.93;3.70;;;10.40;99.90;;;;;;5080147;28;20380;-65
2022/03/12 04:34:49;;;;;;;6.10;3.72;;;10.40;99.90;;;;;;5080435;28;20024;-65
2022/03/12 04:37:16;;;;;;;5.72;3.67;;;10.40;99.90;;;;;;5079298;28;20043;-66
2022/03/12 04:39:42;;;;;;;6.82;3.88;;;10.40;99.90;;;;;;5079831;28;20040;-66
2022/03/12 04:42:08;;;;;;;3.92;3.35;;;10.30;99.90;;;;;;5079489;28;20112;-67
2022/03/12 04:44:34;;;;;;;4.72;3.25;;;10.30;99.90;;;;;;5079229;28;20124;-66
2022/03/12 04:47:00;;;;;;;4.68;3.33;;;10.30;99.90;;;;;;5079033;28;20354;-66
2022/03/12 04:49:26;;;;;;;5.63;3.55;;;10.30;99.90;;;;;;5080299;28;20032;-66
2022/03/12 04:51:53;;;;;;;3.60;3.08;;;10.30;99.90;;;;;;5079134;28;20036;-67
2022/03/12 04:54:19;;;;;;;5.53;3.00;;;10.30;99.90;;;;;;5079596;28;20116;-65
2022/03/12 04:56:46;;;;;;;3.78;3.05;;;10.30;99.90;;;;;;5080186;28;20116;-66
2022/03/12 04:59:13;;;;;;;4.20;3.50;;;10.40;99.90;;;;;;5078734;28;20071;-65
2022/03/12 05:01:39;;;;;;;4.70;3.30;;;10.40;99.90;;;;;;5079455;28;20028;-65
2022/03/12 05:04:05;;;;;;;5.45;3.33;;;10.40;99.90;;;;;;5079175;28;20258;-65
2022/03/12 05:06:31;;;;;;;5.13;3.25;;;10.40;99.90;;;;;;5078443;28;20056;-65
2022/03/12 05:08:57;;;;;;;4.57;3.10;;;10.40;99.90;;;;;;5079119;28;20037;-65
2022/03/12 05:11:23;;;;;;;4.13;3.30;;;10.40;99.90;;;;;;5079365;28;20029;-65
2022/03/12 05:13:53;;;;;;;4.38;3.17;;;10.30;99.90;;;;;;5079394;28;20036;-65
2022/03/12 05:16:19;;;;;;;5.43;3.83;;;10.30;99.90;;;;;;5078652;28;20418;-64
2022/03/12 05:18:45;;;;;;;4.25;3.35;;;10.30;99.90;;;;;;5079202;28;20029;-63
2022/03/12 05:21:11;;;;;;;4.40;2.70;;;10.20;99.90;;;;;;5079270;28;20024;-65
2022/03/12 05:23:37;;;;;;;7.90;3.17;;;10.20;99.90;;;;;;5079388;28;20445;-66
2022/03/12 05:26:03;;;;;;;6.03;3.13;;;10.10;99.90;;;;;;5061514;28;20032;-64
2022/03/12 05:28:32;;;;;;;4.45;3.38;;;10.10;99.90;;;;;;5078849;28;20035;-65
2022/03/12 05:31:04;;;;;;;4.90;2.95;;;10.10;99.90;;;;;;5079032;28;20043;-65
2022/03/12 05:33:31;;;;;;;5.63;3.42;;;10.00;99.90;;;;;;5078906;28;20047;-65
2022/03/12 05:35:58;;;;;;;3.70;3.00;;;9.90;99.90;;;;;;5078884;28;20032;-65
2022/03/12 05:38:34;;;;;;;4.38;3.03;;;9.90;99.90;;;;;;5078587;28;20064;-65
2022/03/12 05:41:00;;;;;;;6.55;3.40;;;9.90;99.90;;;;;;5078760;28;20465;-65
2022/03/12 05:43:26;;;;;;;5.45;3.30;;;9.80;99.90;;;;;;5078712;28;20036;-66
2022/03/12 05:45:52;;;;;;;5.85;3.38;;;9.80;99.90;;;;;;5078800;28;20107;-65
2022/03/12 05:48:19;;;;;;;4.60;2.88;;;9.80;99.90;;;;;;5079004;28;20066;-66
2022/03/12 05:50:49;;;;;;;6.47;3.63;;;9.70;99.90;;;;;;5078826;28;20048;-66
2022/03/12 05:53:17;;;;;;;7.00;3.45;;;9.70;99.90;;;;;;5078533;28;20051;-65
2022/03/12 05:55:44;;;;;;;6.22;3.75;;;9.70;99.90;;;;;;5078415;28;20094;-66
2022/03/12 05:58:11;;;;;;;5.95;3.22;;;9.60;99.90;;;;;;5078973;28;20036;-66
2022/03/12 06:00:39;;;;;;;5.03;3.67;;;9.60;99.90;;;;;;5078351;28;20043;-65
2022/03/12 06:03:05;;;;;;;7.95;3.70;;;9.60;99.90;;;;;;5077731;28;20300;-66
2022/03/12 06:05:31;;;;;;;5.43;3.20;;;9.50;99.90;;;;;;5078362;28;20035;-66
2022/03/12 06:07:59;;;;;;;5.38;3.92;;;9.50;99.90;;;;;;5060934;28;20043;-66
2022/03/12 06:10:31;;;;;;;7.18;4.05;;;9.50;99.90;;;;;;5078241;28;20025;-66
2022/03/12 06:12:59;;;;;;;6.45;3.80;;;9.50;99.90;;;;;;5078978;28;20307;-65
2022/03/12 06:15:26;;;;;;;5.35;3.38;;;9.50;99.90;;;;;;5060749;28;20094;-66
2022/03/12 06:17:53;;;;;;;8.95;3.67;;;9.40;99.90;;;;;;5078068;28;20388;-66
2022/03/12 06:20:20;;;;;;;5.82;3.70;;;9.40;99.90;;;;;;5076597;28;20113;-65
2022/03/12 06:22:51;;;;;;;5.78;3.72;;;9.40;99.90;;;;;;5077175;28;20028;-66
2022/03/12 06:25:21;;;;;;;4.50;3.65;;;9.40;99.90;;;;;;5077615;28;20059;-65
2022/03/12 06:27:54;;;;;;;6.03;3.60;;;9.40;99.90;;;;;;5077684;28;20052;-66
2022/03/12 06:30:21;;;;;;;;;;;9.40;99.90;;;;;;5078818;28;20116;-65
2022/03/12 06:32:47;;;;;;;7.57;3.80;;;9.30;99.90;;;;;;5077653;28;19923;-65
2022/03/12 06:35:13;;;;;;;5.05;3.67;;;9.30;99.90;;;;;;5077701;28;20090;-66
2022/03/12 06:37:40;;;;;;;4.40;3.63;;;9.30;99.90;;;;;;5077676;28;20062;-65
2022/03/12 06:40:10;;;;;;;7.05;3.50;;;9.30;99.90;;;;;;5077807;28;20392;-66
2022/03/12 06:42:39;;;;;;;6.35;3.85;;;9.40;99.90;;;;;;5077545;28;20024;-66
2022/03/12 06:45:06;;;;;;;6.93;3.42;;;9.40;99.90;;;;;;5077827;28;20300;-65
2022/03/12 06:47:33;;;;;;;7.63;4.05;;;9.40;99.90;;;;;;5076624;28;20312;-65
2022/03/12 06:50:01;;;;;;;3.95;3.13;;;9.40;99.90;;;;;;5076756;28;20308;-66
2022/03/12 06:52:28;;;;;;;5.45;3.30;;;9.40;99.90;;;;;;5076933;28;20336;-65
2022/03/12 06:54:55;;;;;;;5.57;3.30;;;9.50;99.90;;;;;;5077297;28;20257;-66
2022/03/12 06:57:21;;;;;;;6.32;2.72;;;9.50;99.90;;;;;;5076721;28;20372;-66
2022/03/12 06:59:47;;;;;;;4.35;3.03;;;9.60;99.90;;;;;;5077240;28;20036;-65
2022/03/12 07:02:13;;;;;;;4.90;3.33;;;9.60;99.90;;;;;;5077482;28;20355;-66
2022/03/12 07:04:40;;;;;;;4.53;3.17;;;9.60;99.90;;;;;;5077235;28;20396;-67
2022/03/12 07:07:06;;;;;;;6.35;3.15;;;9.70;99.90;;;;;;5077177;28;20057;-64
2022/03/12 07:09:34;;;;;;;5.85;3.00;;;9.60;99.90;;;;;;5077100;28;20158;-63
2022/03/12 07:12:01;;;;;;;3.83;3.28;;;9.70;99.90;;;;;;5077121;28;20086;-62
2022/03/12 07:14:28;;;;;;;5.20;2.97;;;9.70;99.90;;;;;;5077609;28;20111;-66
2022/03/12 07:16:55;;;;;;;7.88;2.70;;;9.70;99.90;;;;;;5076973;28;20142;-67
2022/03/12 07:19:21;;;;;;;6.60;3.00;;;9.80;99.90;;;;;;5059613;28;20033;-66
2022/03/12 07:21:49;;;;;;;5.32;2.50;;;9.80;99.90;;;;;;5076894;28;20036;-66
2022/03/12 07:24:16;;;;;;;6.60;2.83;;;9.80;99.90;;;;;;5076974;28;20038;-66
2022/03/12 07:26:43;;;;;;;6.22;2.55;;;9.90;99.90;;;;;;5077405;28;20033;-65
2022/03/12 07:29:09;;;;;;;5.82;2.90;;;9.90;99.90;;;;;;5076840;28;20319;-63
2022/03/12 07:31:38;;;;;;;5.38;3.08;;;9.90;99.90;;;;;;5076507;28;20024;-66
2022/03/12 07:34:05;;;;;;;7.40;2.75;;;10.00;99.90;;;;;;5076640;28;20044;-67
2022/03/12 07:36:31;;;;;;;5.22;2.92;;;10.00;99.90;;;;;;5076819;28;20100;-66
2022/03/12 07:38:58;;;;;;;4.88;3.05;;;10.10;99.90;;;;;;5076499;28;20109;-68
2022/03/12 07:41:27;;;;;;;5.93;2.78;;;10.10;99.90;;;;;;5076477;28;20048;-65
2022/03/12 07:43:53;;;;;;;5.95;3.13;;;10.10;99.90;;;;;;5075916;28;20082;-66
2022/03/12 07:46:19;;;;;;;5.75;2.88;;;10.20;99.90;;;;;;5076788;28;20043;-67
2022/03/12 07:48:45;;;;;;;4.10;3.03;;;10.30;99.90;;;;;;5076660;28;20024;-66
2022/03/12 07:51:11;;;;;;;5.40;3.25;;;10.40;99.90;;;;;;5076753;28;20120;-65
2022/03/12 07:53:37;;;;;;;5.18;2.80;;;10.40;99.90;;;;;;5076665;28;20032;-67
2022/03/12 07:56:04;;;;;;;5.55;2.70;;;10.40;99.90;;;;;;5059437;28;20095;-64
2022/03/12 07:58:30;;;;;;;6.30;2.80;;;10.50;99.90;;;;;;5075871;28;20107;-65
2022/03/12 08:00:59;;;;;;;6.50;3.08;;;10.60;99.90;;;;;;5076450;28;20124;-68
2022/03/12 08:03:26;;;;;;;5.35;2.60;;;10.60;99.90;;;;;;5076630;28;20056;-66
2022/03/12 08:05:53;;;;;;;8.05;2.80;;;10.70;99.90;;;;;;5076554;28;20040;-66
2022/03/12 08:08:19;;;;;;;5.97;2.47;;;10.70;99.90;;;;;;5075858;28;20037;-67
2022/03/12 08:13:30;;;;;;;4.45;2.05;;;10.80;99.90;;;;;;5076518;28;20307;-66
2022/03/12 08:15:57;;;;;;;5.18;2.25;;;10.90;99.90;;;;;;5076399;28;20032;-65
2022/03/12 08:18:24;;;;;;;7.90;2.03;;;11.00;99.90;;;;;;5076210;28;20043;-66
2022/03/12 08:20:51;;;;;;;10.25;2.35;;;11.10;99.90;;;;;;5075466;28;20123;-65
2022/03/12 08:23:17;;;;;;;6.25;1.88;;;11.00;99.90;;;;;;5076184;28;20120;-68
2022/03/12 08:25:43;;;;;;;5.85;2.33;;;10.90;99.90;;;;;;5075365;28;20407;-65
2022/03/12 08:28:09;;;;;;;4.70;2.25;;;10.90;99.90;;;;;;5075636;28;20033;-65
2022/03/12 08:30:36;;;;;;;6.82;2.35;;;11.00;99.90;;;;;;5075319;28;20268;-65
2022/03/12 08:33:04;;;;;;;7.72;2.53;;;11.10;99.90;;;;;;5076226;28;20037;-66
2022/03/12 08:35:31;;;;;;;6.40;2.10;;;11.30;99.90;;;;;;5076187;28;20052;-66
2022/03/12 08:37:57;;;;;;;5.45;2.10;;;11.50;99.90;;;;;;5075159;28;20035;-66
2022/03/12 08:40:25;;;;;;;3.58;2.13;;;11.30;99.90;;;;;;5076653;28;20024;-66
2022/03/12 08:42:52;;;;;;;5.63;2.35;;;11.30;99.90;;;;;;5077176;28;20043;-64
2022/03/12 08:45:19;;;;;;;7.30;2.17;;;11.30;99.90;;;;;;5079858;28;20296;-66
2022/03/12 08:47:46;;;;;;;8.65;2.65;;;11.20;99.90;;;;;;5079775;28;20028;-66
2022/03/12 08:50:13;;;;;;;5.10;2.03;;;11.20;99.90;;;;;;5062329;28;20024;-62
2022/03/12 08:52:40;;;;;;;3.22;1.77;;;11.20;99.90;;;;;;5079690;28;20055;-66
2022/03/12 08:55:06;;;;;;;6.03;1.85;;;11.20;99.90;;;;;;5080024;28;20392;-65
2022/03/12 08:57:32;;;;;;;8.25;1.92;;;11.10;99.90;;;;;;5079620;28;20028;-66
2022/03/12 08:59:58;;;;;;;12.77;2.20;;;11.20;99.90;;;;;;5079432;28;20043;-65
2022/03/12 09:02:25;;;;;;;8.00;1.90;;;11.30;99.90;;;;;;5079105;28;20024;-66
2022/03/12 09:04:52;;;;;;;5.82;1.75;;;11.40;99.90;;;;;;5078858;28;20024;-67
2022/03/12 09:07:18;;;;;;;7.63;1.98;;;11.40;99.90;;;;;;5079376;28;20040;-66
2022/03/12 09:09:45;;;;;;;7.25;2.00;;;11.50;99.90;;;;;;5079357;28;20296;-67
2022/03/12 09:12:11;;;;;;;7.40;2.03;;;11.50;99.90;;;;;;5061985;28;20044;-62
2022/03/12 09:14:37;;;;;;;5.60;1.90;;;11.50;99.90;;;;;;5078574;28;20036;-67
2022/03/12 09:17:06;;;;;;;8.18;2.28;;;11.50;99.90;;;;;;5078451;28;20043;-63
2022/03/12 09:19:32;;;;;;;5.82;1.83;;;11.50;99.90;;;;;;5079725;28;20466;-65
2022/03/12 09:21:59;;;;;;;6.68;1.70;;;11.40;99.90;;;;;;5078980;28;20048;-65
2022/03/12 09:24:25;;;;;;;6.10;1.65;;;11.40;99.90;;;;;;5080231;28;20368;-66
2022/03/12 09:26:53;;;;;;;8.05;2.00;;;11.40;99.90;;;;;;5079447;28;20288;-67
2022/03/12 09:29:19;;;;;;;6.18;1.77;;;11.50;99.90;;;;;;5078426;28;20036;-67
2022/03/12 09:31:45;;;;;;;3.72;1.77;;;11.50;99.90;;;;;;5078345;28;20051;-65
2022/03/12 09:34:11;;;;;;;6.10;1.98;;;11.60;99.90;;;;;;5078813;28;20408;-62
2022/03/12 09:36:38;;;;;;;3.22;1.90;;;11.60;99.90;;;;;;5078929;28;20449;-65
2022/03/12 09:39:06;;;;;;;5.95;2.30;;;11.60;99.90;;;;;;5077713;28;20166;-64
2022/03/12 09:41:38;;;;;;;6.22;2.03;;;11.50;99.90;;;;;;5078916;28;20358;-64
2022/03/12 09:44:08;;;;;;;7.75;1.98;;;11.50;99.90;;;;;;5078442;28;20354;-65
2022/03/12 09:46:34;;;;;;;5.32;1.88;;;11.60;99.90;;;;;;5078721;28;20400;-65
2022/03/12 09:49:00;;;;;;;3.80;1.67;;;11.90;99.90;;;;;;5078727;28;20047;-67
2022/03/12 09:51:28;;;;;;;6.28;1.50;;;12.10;99.90;;;;;;5079016;28;20028;-63
2022/03/12 09:53:55;;;;;;;4.82;1.90;;;12.00;99.90;;;;;;5061398;28;20047;-66
2022/03/12 09:56:21;;;;;;;6.00;1.70;;;12.10;99.90;;;;;;5078420;28;20036;-66
2022/03/12 09:58:47;;;;;;;9.13;1.90;;;12.10;99.90;;;;;;5078454;28;20036;-66
2022/03/12 10:01:13;;;;;;;3.45;1.40;;;12.10;99.90;;;;;;5061590;28;20296;-67
2022/03/12 10:03:43;;;;;;;3.47;2.03;;;12.10;99.90;;;;;;5077674;28;20032;-66
2022/03/12 10:06:10;;;;;;;4.72;1.95;;;12.20;99.90;;;;;;5078374;28;20070;-67
2022/03/12 10:08:37;;;;;;;5.07;2.03;;;12.30;99.90;;;;;;5078281;28;20099;-67
2022/03/12 10:11:05;;;;;;;3.97;1.50;;;12.50;99.90;;;;;;5077698;28;20089;-67
2022/03/12 10:13:32;;;;;;;8.50;2.50;;;12.40;99.90;;;;;;5077964;28;20036;-64
2022/03/12 10:15:59;;;;;;;5.68;1.67;;;12.50;99.90;;;;;;5077137;28;20033;-66
2022/03/12 10:18:26;;;;;;;6.03;1.70;;;12.80;99.90;;;;;;5078009;28;20029;-66
2022/03/12 10:20:52;;;;;;;6.07;1.90;;;12.90;99.90;;;;;;5077994;28;20346;-65
2022/03/12 10:23:18;;;;;;;5.65;2.05;;;12.90;99.90;;;;;;5077970;28;20043;-65
2022/03/12 10:25:45;;;;;;;5.38;1.80;;;12.90;99.90;;;;;;5077922;28;20032;-66
2022/03/12 10:28:12;;;;;;;4.05;1.40;;;12.90;99.90;;;;;;5077882;28;20021;-62
2022/03/12 10:30:39;;;;;;;4.05;1.70;;;13.10;99.90;;;;;;5077867;28;20047;-66
2022/03/12 10:33:06;;;;;;;4.32;1.58;;;13.10;99.90;;;;;;5077647;28;20029;-65
2022/03/12 10:35:37;;;;;;;6.60;1.75;;;13.20;99.90;;;;;;5077369;28;20329;-61
2022/03/12 10:38:10;;;;;;;5.10;1.50;;;13.50;99.90;;;;;;5077378;28;20036;-65
2022/03/12 10:40:36;;;;;;;5.20;1.50;;;13.70;99.90;;;;;;5077539;28;20399;-65
2022/03/12 10:43:12;;;;;;;3.35;1.33;;;14.00;99.90;;;;;;5076537;28;20036;-65
2022/03/12 10:45:52;;;;;;;5.22;1.40;;;14.40;99.90;;;;;;5076670;28;20033;-65
2022/03/12 10:48:21;;;;;;;5.07;1.40;;;14.40;99.90;;;;;;5077638;28;20446;-63
2022/03/12 10:50:50;;;;;;;3.55;1.25;;;14.50;99.90;;;;;;5077621;28;20362;-64
2022/03/12 10:53:17;;;;;;;4.97;1.73;;;14.00;99.90;;;;;;5077212;28;20072;-64
2022/03/12 10:55:46;;;;;;;3.75;1.38;;;13.60;99.90;;;;;;5077216;28;20035;-65
2022/03/12 10:58:17;;;;;;;4.55;1.50;;;13.50;99.90;;;;;;5059733;28;20111;-65
2022/03/12 11:00:48;;;;;;;4.90;1.40;;;13.50;99.90;;;;;;5077254;28;20115;-64
2022/03/12 11:03:20;;;;;;;3.15;1.27;;;13.60;99.90;;;;;;5077141;28;20039;-64
2022/03/12 11:05:47;;;;;;;3.30;1.37;;;13.70;99.90;;;;;;5076630;28;20067;-66
2022/03/12 11:08:19;;;;;;;4.35;1.30;;;14.10;99.90;;;;;;5076336;28;20032;-63
2022/03/12 11:10:58;;;;;;;3.35;1.52;;;14.60;99.90;;;;;;5077150;28;20032;-65
2022/03/12 11:13:49;;;;;;;5.60;1.67;;;14.30;99.90;;;;;;5076400;28;20043;-64
2022/03/12 11:16:32;;;;;;;3.22;1.60;;;14.40;99.90;;;;;;5076294;28;20127;-65
2022/03/12 11:19:09;;;;;;;3.67;1.50;;;14.50;99.90;;;;;;5076879;28;20123;-65
2022/03/12 11:21:44;;;;;;;6.75;1.67;;;14.60;99.90;;;;;;5077361;28;20343;-65
2022/03/12 11:24:43;;;;;;;4.07;1.27;;;15.00;99.90;;;;;;5076942;28;20284;-66
2022/03/12 11:27:13;;;;;;;3.30;1.27;;;14.70;99.90;;;;;;5076160;28;20040;-64
2022/03/12 11:29:39;;;;;;;2.42;1.20;;;14.60;99.90;;;;;;5077378;28;20051;-66
2022/03/12 11:32:09;;;;;;;3.05;1.27;;;14.40;99.90;;;;;;5075994;28;20036;-66
2022/03/12 11:34:41;;;;;;;3.97;1.42;;;14.60;99.90;;;;;;5076865;28;20039;-66
2022/03/12 11:37:12;;;;;;;;;;;14.80;99.90;;;;;;5077220;28;20032;-66
2022/03/12 11:39:47;;;;;;;4.68;1.67;;;14.70;99.90;;;;;;5076460;28;19916;-67
2022/03/12 11:42:18;;;;;;;4.38;1.27;;;14.80;99.90;;;;;;5076754;28;20028;-67
2022/03/12 11:44:55;;;;;;;4.53;1.35;;;15.20;99.90;;;;;;5076683;28;20288;-68
2022/03/12 11:47:23;;;;;;;3.95;1.30;;;15.40;99.90;;;;;;5075954;28;20048;-66
2022/03/12 11:49:50;;;;;;;2.50;1.25;;;15.50;99.90;;;;;;5076664;28;20044;-67
2022/03/12 11:52:17;;;;;;;2.80;1.00;;;15.80;99.90;;;;;;5077223;28;20089;-67
2022/03/12 11:54:45;;;;;;;3.38;1.25;;;16.30;99.90;;;;;;5075977;28;20076;-65
2022/03/12 11:57:28;;;;;;;5.68;1.45;;;16.50;99.90;;;;;;5075873;28;20036;-65
2022/03/12 11:59:58;;;;;;;3.53;1.30;;;16.60;99.90;;;;;;5077123;28;20131;-66
2022/03/12 12:02:32;;;;;;;3.95;1.10;;;16.50;99.90;;;;;;5076862;28;20039;-66
2022/03/12 12:05:00;;;;;;;3.25;1.10;;;16.20;99.90;;;;;;5076383;28;20036;-66
2022/03/12 12:07:30;;;;;;;3.22;1.08;;;16.70;99.90;;;;;;5076274;28;20044;-66
2022/03/12 12:09:56;;;;;;;3.78;0.95;;;16.70;99.90;;;;;;5076386;28;20048;-65
2022/03/12 12:12:24;;;;;;;3.15;0.90;;;16.50;99.90;;;;;;5075558;28;20032;-66
2022/03/12 12:14:52;;;;;;;2.92;1.00;;;16.50;99.90;;;;;;5059929;28;20028;-65
2022/03/12 12:17:18;;;;;;;2.38;1.00;;;17.20;99.90;;;;;;5077938;28;20036;-65
2022/03/12 12:19:44;;;;;;;4.55;1.10;;;16.50;99.90;;;;;;5062536;28;20052;-65
2022/03/12 12:22:10;;;;;;;7.00;1.60;;;16.50;99.90;;;;;;5080666;28;20116;-66
2022/03/12 12:24:39;;;;;;;5.53;1.35;;;17.00;99.90;;;;;;5080206;28;20395;-66
2022/03/12 12:27:08;;;;;;;2.90;1.10;;;17.40;99.90;;;;;;5079340;28;20299;-66
2022/03/12 12:29:45;;;;;;;3.00;1.00;;;16.90;99.90;;;;;;5079914;28;20108;-65
2022/03/12 12:32:14;;;;;;;2.50;1.00;;;18.00;99.90;;;;;;5079157;28;20115;-64
2022/03/12 12:35:14;;;;;;;4.25;1.17;;;17.90;99.90;;;;;;5080243;28;20281;-65
2022/03/12 12:37:45;;;;;;;3.08;1.13;;;16.90;99.90;;;;;;5078801;28;20040;-65
2022/03/12 12:40:36;;;;;;;3.38;1.10;;;16.40;99.90;;;;;;5079876;28;20097;-65
2022/03/12 12:43:12;;;;;;;5.05;1.10;;;15.90;99.90;;;;;;5079815;28;20032;-65
2022/03/12 12:45:53;;;;;;;4.88;1.13;;;15.90;99.90;;;;;;5080334;28;20372;-63
2022/03/12 12:48:32;;;;;;;3.00;1.00;;;16.20;99.90;;;;;;5079382;28;20112;-65
2022/03/12 12:51:06;;;;;;;7.40;1.15;;;16.40;99.90;;;;;;5062362;28;20127;-64
2022/03/12 12:53:41;;;;;;;3.75;1.30;;;16.40;99.90;;;;;;5079636;28;20025;-66
2022/03/12 12:56:18;;;;;;;3.25;1.00;;;16.10;99.90;;;;;;5078922;28;20089;-65